Time,TemperatureF,DewpointF,PressureIn,WindDirection,WindDirectionDegrees,WindSpeedMPH,WindSpeedGustMPH,Humidity,HourlyPrecipIn,Conditions,Clouds,dailyrainin,SolarRadiationWatts/m^2,SoftwareType,DateUTC
2013-08-10 00:00:00,77.0,64.3,29.83,WNW,288,6.5,12.7,65,0.00,BKN,,0.00,0.0,WeatherDisplay:10.37,2013-08-09 22:00:00,
2013-08-10 00:05:00,77.4,64.7,29.84,WSW,246,4.0,11.5,65,0.00,BKN,,0.00,0.0,WeatherDisplay:10.37,2013-08-09 22:05:00,
2013-08-10 00:10:00,77.5,65.2,29.84,WNW,301,1.4,10.4,66,0.00,BKN,,0.00,0.0,WeatherDisplay:10.37,2013-08-09 22:10:00,
2013-08-10 00:15:00,77.4,65.6,29.84,NNW,344,5.1,16.1,67,0.00,BKN,,0.00,0.0,WeatherDisplay:10.37,2013-08-09 22:15:00,
2013-08-10 00:20:00,76.8,65.4,29.85,NW,324,9.7,17.3,68,0.00,BKN,,0.00,0.0,WeatherDisplay:10.37,2013-08-09 22:20:00,
2013-08-10 00:25:00,76.0,65.1,29.85,NNE,22,3.2,15.0,69,0.00,BKN,,0.00,0.0,WeatherDisplay:10.37,2013-08-09 22:25:00,
2013-08-10 00:30:00,75.2,64.7,29.86,North,9,6.8,18.4,70,0.00,BKN,,0.00,0.0,WeatherDisplay:10.37,2013-08-09 22:30:00,
2013-08-10 00:35:00,74.6,64.2,29.86,NW,307,8.7,18.4,70,0.00,BKN,,0.00,0.0,WeatherDisplay:10.37,2013-08-09 22:35:00,
2013-08-10 00:40:00,74.1,63.7,29.86,WNW,303,5.2,13.8,70,0.00,BKN,,0.00,0.0,WeatherDisplay:10.37,2013-08-09 22:40:00,
2013-08-10 00:45:00,73.8,63.8,29.86,NW,314,6.8,12.7,71,0.00,BKN,,0.00,0.0,WeatherDisplay:10.37,2013-08-09 22:45:00,
2013-08-10 00:50:00,73.5,63.5,29.86,NW,320,5.1,11.5,71,0.00,BKN,,0.00,0.0,WeatherDisplay:10.37,2013-08-09 22:50:00,
2013-08-10 00:55:00,73.3,62.9,29.87,WNW,292,5.3,15.0,70,0.00,BKN,,0.00,0.0,WeatherDisplay:10.37,2013-08-09 22:55:00,
2013-08-10 01:00:00,73.1,62.7,29.87,NNW,333,7.2,16.1,70,0.00,BKN,,0.00,0.0,WeatherDisplay:10.37,2013-08-09 23:00:00,
2013-08-10 01:05:00,72.9,61.7,29.86,WNW,294,11.5,19.0,68,0.00,BKN,,0.00,0.0,WeatherDisplay:10.37,2013-08-09 23:05:00,
2013-08-10 01:10:00,72.8,61.6,29.86,NW,323,7.0,13.8,68,0.00,BKN,,0.00,0.0,WeatherDisplay:10.37,2013-08-09 23:10:00,
2013-08-10 01:15:00,72.6,61.0,29.86,NNW,332,7.0,15.0,67,0.00,BKN,,0.00,0.0,WeatherDisplay:10.37,2013-08-09 23:15:00,
2013-08-10 01:20:00,72.4,60.8,29.86,NW,306,9.2,16.1,67,0.00,BKN,,0.00,0.0,WeatherDisplay:10.37,2013-08-09 23:20:00,
2013-08-10 01:25:00,72.2,60.6,29.86,WNW,298,4.6,11.5,67,0.00,BKN,,0.00,0.0,WeatherDisplay:10.37,2013-08-09 23:25:00,
2013-08-10 01:30:00,72.1,60.1,29.85,NNW,330,6.2,12.0,66,0.00,BKN,,0.00,0.0,WeatherDisplay:10.37,2013-08-09 23:30:00,
2013-08-10 01:35:00,72.0,60.4,29.85,NNW,348,6.8,16.1,67,0.00,BKN,,0.00,0.0,WeatherDisplay:10.37,2013-08-09 23:35:00,
2013-08-10 01:40:00,71.8,60.7,29.85,NNW,330,5.1,16.0,68,0.00,BKN,,0.00,0.0,WeatherDisplay:10.37,2013-08-09 23:40:00,
2013-08-10 01:45:00,71.6,60.5,29.84,NNW,343,4.0,10.4,68,0.00,BKN,,0.00,0.0,WeatherDisplay:10.37,2013-08-09 23:45:00,
2013-08-10 01:50:00,71.5,60.8,29.84,WSW,247,3.0,12.7,69,0.00,BKN,,0.00,0.0,WeatherDisplay:10.37,2013-08-09 23:50:00,
2013-08-10 01:55:00,71.3,61.0,29.84,NNW,347,5.5,9.2,70,0.00,BKN,,0.00,0.0,WeatherDisplay:10.37,2013-08-09 23:55:00,
2013-08-10 02:00:00,71.1,61.2,29.84,North,355,4.7,12.0,71,0.00,BKN,,0.00,0.0,WeatherDisplay:10.37,2013-08-10 00:00:00,
2013-08-10 02:05:00,70.8,61.3,29.85,WNW,299,3.0,9.2,72,0.00,BKN,,0.00,0.0,WeatherDisplay:10.37,2013-08-10 00:05:00,
2013-08-10 02:10:00,70.7,61.6,29.85,NNW,334,2.3,8.1,73,0.00,BKN,,0.00,0.0,WeatherDisplay:10.37,2013-08-10 00:10:00,
2013-08-10 02:15:00,70.5,61.8,29.85,NNW,338,3.3,9.2,74,0.00,BKN,,0.00,0.0,WeatherDisplay:10.37,2013-08-10 00:15:00,
2013-08-10 02:20:00,70.4,62.1,29.85,West,273,2.0,6.9,75,0.00,BKN,,0.00,0.0,WeatherDisplay:10.37,2013-08-10 00:20:00,
2013-08-10 02:25:00,70.3,62.4,29.85,North,10,4.4,13.8,76,0.00,BKN,,0.00,0.0,WeatherDisplay:10.37,2013-08-10 00:25:00,
2013-08-10 02:30:00,70.3,62.7,29.85,NNW,329,2.8,11.5,77,0.00,BKN,,0.00,0.0,WeatherDisplay:10.37,2013-08-10 00:30:00,
2013-08-10 02:35:00,70.2,63.0,29.85,NNW,347,2.4,11.5,78,0.00,BKN,,0.00,0.0,WeatherDisplay:10.37,2013-08-10 00:35:00,
2013-08-10 02:40:00,70.1,62.9,29.85,NNW,344,3.3,9.2,78,0.00,BKN,,0.00,0.0,WeatherDisplay:10.37,2013-08-10 00:40:00,
2013-08-10 02:45:00,70.0,62.8,29.85,WNW,285,5.1,11.5,78,0.00,BKN,,0.00,0.0,WeatherDisplay:10.37,2013-08-10 00:45:00,
2013-08-10 02:50:00,70.0,62.8,29.85,NNW,342,1.0,4.6,78,0.00,BKN,,0.00,0.0,WeatherDisplay:10.37,2013-08-10 00:50:00,
2013-08-10 02:55:00,69.9,63.1,29.84,NW,324,5.5,11.0,79,0.00,BKN,,0.00,0.0,WeatherDisplay:10.37,2013-08-10 00:55:00,
2013-08-10 03:00:00,69.8,63.0,29.83,NNW,333,3.7,11.5,79,0.00,BKN,,0.00,0.0,WeatherDisplay:10.37,2013-08-10 01:00:00,
2013-08-10 03:06:00,69.8,63.3,29.83,North,9,3.4,9.2,80,0.00,BKN,,0.00,0.0,WeatherDisplay:10.37,2013-08-10 01:06:00,
2013-08-10 03:11:00,69.8,63.3,29.83,NNW,344,4.5,6.0,80,0.00,BKN,,0.00,0.0,WeatherDisplay:10.37,2013-08-10 01:11:00,
2013-08-10 03:16:00,69.7,63.3,29.83,North,360,3.6,6.0,80,0.00,BKN,,0.00,0.0,WeatherDisplay:10.37,2013-08-10 01:16:00,
2013-08-10 03:21:00,69.7,63.3,29.83,NNE,20,2.6,5.8,80,0.00,BKN,,0.00,0.0,WeatherDisplay:10.37,2013-08-10 01:21:00,
2013-08-10 03:26:00,69.6,63.2,29.82,North,9,1.5,5.8,80,0.00,BKN,,0.00,0.0,WeatherDisplay:10.37,2013-08-10 01:26:00,
2013-08-10 03:31:00,69.6,63.2,29.82,North,355,1.3,3.0,80,0.00,BKN,,0.00,0.0,WeatherDisplay:10.37,2013-08-10 01:31:00,
2013-08-10 03:36:00,69.5,63.1,29.82,North,5,0.9,3.5,80,0.00,BKN,,0.00,0.0,WeatherDisplay:10.37,2013-08-10 01:36:00,
2013-08-10 03:41:00,69.4,63.0,29.82,North,5,0.3,2.3,80,0.00,BKN,,0.00,0.0,WeatherDisplay:10.37,2013-08-10 01:41:00,
2013-08-10 03:46:00,69.3,62.9,29.82,North,5,0.3,3.5,80,0.00,BKN,,0.00,0.0,WeatherDisplay:10.37,2013-08-10 01:46:00,
2013-08-10 03:51:00,69.2,63.1,29.82,NNW,346,1.3,4.0,81,0.00,BKN,,0.00,0.0,WeatherDisplay:10.37,2013-08-10 01:51:00,
2013-08-10 03:56:00,69.1,63.0,29.82,NNW,346,0.3,1.2,81,0.00,BKN,,0.00,0.0,WeatherDisplay:10.37,2013-08-10 01:56:00,
2013-08-10 04:01:00,69.0,62.9,29.82,NNW,344,0.1,3.5,81,0.00,BKN,,0.00,0.0,WeatherDisplay:10.37,2013-08-10 02:01:00,
2013-08-10 04:06:00,69.0,62.9,29.82,NNW,344,0.1,2.3,81,0.00,BKN,,0.00,0.0,WeatherDisplay:10.37,2013-08-10 02:06:00,
2013-08-10 04:11:00,68.9,62.8,29.82,WNW,290,0.5,2.3,81,0.00,BKN,,0.00,0.0,WeatherDisplay:10.37,2013-08-10 02:11:00,
2013-08-10 04:16:00,68.8,63.1,29.83,NNW,338,1.9,3.5,82,0.00,BKN,,0.00,0.0,WeatherDisplay:10.37,2013-08-10 02:16:00,
2013-08-10 04:21:00,68.7,63.0,29.82,NNW,342,0.7,3.5,82,0.00,BKN,,0.00,0.0,WeatherDisplay:10.37,2013-08-10 02:21:00,
2013-08-10 04:26:00,68.6,62.9,29.82,NNW,345,1.7,3.5,82,0.00,BKN,,0.00,0.0,WeatherDisplay:10.37,2013-08-10 02:26:00,
2013-08-10 04:31:00,68.6,62.9,29.82,NNW,344,2.0,5.0,82,0.00,BKN,,0.00,0.0,WeatherDisplay:10.37,2013-08-10 02:31:00,
2013-08-10 04:36:00,68.5,63.1,29.82,NW,326,2.4,6.9,83,0.00,BKN,,0.00,0.0,WeatherDisplay:10.37,2013-08-10 02:36:00,
2013-08-10 04:41:00,68.6,63.2,29.83,NW,317,7.0,11.5,83,0.00,BKN,,0.00,0.0,WeatherDisplay:10.37,2013-08-10 02:41:00,
2013-08-10 04:46:00,68.7,63.3,29.83,NNW,343,2.6,6.0,83,0.00,BKN,,0.00,0.0,WeatherDisplay:10.37,2013-08-10 02:46:00,
2013-08-10 04:51:00,68.9,63.5,29.83,NNW,343,4.0,11.0,83,0.00,BKN,,0.00,0.0,WeatherDisplay:10.37,2013-08-10 02:51:00,
2013-08-10 04:57:00,69.0,63.6,29.84,North,11,5.6,11.5,83,0.00,BKN,,0.00,0.0,WeatherDisplay:10.37,2013-08-10 02:57:00,
2013-08-10 05:02:00,69.1,63.7,29.84,NNW,346,2.7,9.2,83,0.00,BKN,,0.00,0.0,WeatherDisplay:10.37,2013-08-10 03:02:00,
2013-08-10 05:07:00,69.1,63.7,29.85,North,355,4.8,9.2,83,0.00,BKN,,0.00,0.0,WeatherDisplay:10.37,2013-08-10 03:07:00,
2013-08-10 05:12:00,69.1,63.7,29.85,NW,325,3.5,10.4,83,0.00,BKN,,0.00,0.0,WeatherDisplay:10.37,2013-08-10 03:12:00,
2013-08-10 05:17:00,69.1,63.7,29.85,WNW,286,1.6,6.9,83,0.00,BKN,,0.00,0.0,WeatherDisplay:10.37,2013-08-10 03:17:00,
2013-08-10 05:22:00,69.0,63.6,29.85,North,355,0.5,5.8,83,0.00,BKN,,0.00,0.0,WeatherDisplay:10.37,2013-08-10 03:22:00,
2013-08-10 05:27:00,68.9,63.5,29.85,NNW,332,5.4,9.2,83,0.00,BKN,,0.00,0.0,WeatherDisplay:10.37,2013-08-10 03:27:00,
2013-08-10 05:32:00,68.8,63.4,29.85,NW,318,6.4,10.0,83,0.00,BKN,,0.00,0.0,WeatherDisplay:10.37,2013-08-10 03:32:00,
2013-08-10 05:37:00,68.7,63.3,29.85,NNW,329,5.4,11.5,83,0.00,BKN,,0.00,0.0,WeatherDisplay:10.37,2013-08-10 03:37:00,
2013-08-10 05:42:00,68.6,63.2,29.85,NNW,344,6.7,13.0,83,0.00,BKN,,0.00,0.0,WeatherDisplay:10.37,2013-08-10 03:42:00,
2013-08-10 05:47:00,68.5,63.1,29.85,NNW,346,3.7,12.7,83,0.00,BKN,,0.00,5.0,WeatherDisplay:10.37,2013-08-10 03:47:00,
2013-08-10 05:52:00,68.5,63.1,29.85,NNE,19,5.4,9.2,83,0.00,BKN,,0.00,7.0,WeatherDisplay:10.37,2013-08-10 03:52:00,
2013-08-10 05:57:00,68.4,63.0,29.85,NNW,331,7.5,11.0,83,0.00,BKN,,0.00,11.0,WeatherDisplay:10.37,2013-08-10 03:57:00,
2013-08-10 06:01:00,68.4,63.0,29.85,NW,313,3.9,14.0,83,0.00,BKN,,0.00,12.0,WeatherDisplay:10.37,2013-08-10 04:01:00,
2013-08-10 06:02:00,68.3,62.9,29.85,NNW,342,4.3,13.8,83,0.00,BKN,,0.00,12.0,WeatherDisplay:10.37,2013-08-10 04:02:00,
2013-08-10 06:05:00,68.4,63.0,29.85,NNW,344,7.7,13.0,83,0.00,BKN,,0.00,12.0,WeatherDisplay:10.37,2013-08-10 04:05:00,
2013-08-10 06:06:00,68.4,63.0,29.85,NW,304,6.2,12.7,83,0.00,BKN,,0.00,14.0,WeatherDisplay:10.37,2013-08-10 04:06:00,
2013-08-10 06:09:00,68.3,62.9,29.85,NNW,332,4.9,12.7,83,0.00,BKN,,0.00,16.0,WeatherDisplay:10.37,2013-08-10 04:09:00,
2013-08-10 06:14:00,68.3,62.9,29.85,NNE,28,6.3,11.5,83,0.00,BKN,,0.00,23.0,WeatherDisplay:10.37,2013-08-10 04:14:00,
2013-08-10 06:19:00,68.2,62.8,29.86,NNW,348,7.0,18.0,83,0.00,BKN,,0.00,35.0,WeatherDisplay:10.37,2013-08-10 04:19:00,
2013-08-10 06:24:00,68.1,62.7,29.85,NW,323,5.5,10.0,83,0.00,BKN,,0.00,51.0,WeatherDisplay:10.37,2013-08-10 04:24:00,
2013-08-10 06:29:00,68.0,62.6,29.85,NW,325,2.9,10.4,83,0.00,BKN,,0.00,60.0,WeatherDisplay:10.37,2013-08-10 04:29:00,
2013-08-10 06:34:00,68.0,62.6,29.85,NE,35,6.3,15.0,83,0.00,SCT,,0.00,74.0,WeatherDisplay:10.37,2013-08-10 04:34:00,
2013-08-10 06:39:00,68.0,62.6,29.85,NW,316,4.3,13.8,83,0.00,SCT,,0.00,95.0,WeatherDisplay:10.37,2013-08-10 04:39:00,
2013-08-10 06:44:00,68.0,62.6,29.85,NNW,345,4.1,9.0,83,0.00,FEW,,0.00,123.0,WeatherDisplay:10.37,2013-08-10 04:44:00,
2013-08-10 06:49:00,68.0,62.6,29.86,NNW,328,5.2,13.0,83,0.00,CLR,,0.00,135.0,WeatherDisplay:10.37,2013-08-10 04:49:00,
2013-08-10 06:54:00,68.0,62.6,29.86,NW,323,5.6,12.7,83,0.00,CLR,,0.00,144.0,WeatherDisplay:10.37,2013-08-10 04:54:00,
2013-08-10 06:59:00,68.1,62.7,29.85,NW,318,6.5,12.0,83,0.00,CLR,,0.00,111.0,WeatherDisplay:10.37,2013-08-10 04:59:00,
2013-08-10 07:04:00,68.1,62.7,29.85,NNE,30,5.3,16.1,83,0.00,FEW,,0.00,104.0,WeatherDisplay:10.37,2013-08-10 05:04:00,
2013-08-10 07:09:00,68.1,62.7,29.85,NW,325,4.2,11.5,83,0.00,SCT,,0.00,93.0,WeatherDisplay:10.37,2013-08-10 05:09:00,
2013-08-10 07:14:00,68.1,62.7,29.85,NW,317,4.9,12.7,83,0.00,SCT,,0.00,139.0,WeatherDisplay:10.37,2013-08-10 05:14:00,
2013-08-10 07:19:00,68.2,62.8,29.85,NNW,331,2.3,8.1,83,0.00,SCT,,0.00,128.0,WeatherDisplay:10.37,2013-08-10 05:19:00,
2013-08-10 07:24:00,68.4,63.0,29.85,North,360,5.5,12.7,83,0.00,SCT,,0.00,137.0,WeatherDisplay:10.37,2013-08-10 05:24:00,
2013-08-10 07:29:00,68.4,62.7,29.86,NNE,22,6.3,15.0,82,0.00,SCT,,0.00,137.0,WeatherDisplay:10.37,2013-08-10 05:29:00,
2013-08-10 07:34:00,68.5,62.8,29.86,NW,304,8.0,15.0,82,0.00,SCT,,0.00,114.0,WeatherDisplay:10.37,2013-08-10 05:34:00,
2013-08-10 07:39:00,68.5,62.8,29.86,NNE,25,5.5,11.0,82,0.00,SCT,,0.00,113.0,WeatherDisplay:10.37,2013-08-10 05:39:00,
2013-08-10 07:44:00,68.5,62.8,29.86,NW,317,4.7,10.4,82,0.00,BKN,,0.00,109.0,WeatherDisplay:10.37,2013-08-10 05:44:00,
2013-08-10 07:49:00,68.5,62.8,29.86,NNE,23,7.1,13.0,82,0.00,BKN,,0.00,116.0,WeatherDisplay:10.37,2013-08-10 05:49:00,
2013-08-10 07:54:00,68.5,62.8,29.86,West,270,7.2,11.5,82,0.00,BKN,,0.00,134.0,WeatherDisplay:10.37,2013-08-10 05:54:00,
2013-08-10 07:59:00,68.4,62.7,29.86,NNW,334,5.8,12.0,82,0.00,BKN,,0.00,158.0,WeatherDisplay:10.37,2013-08-10 05:59:00,
2013-08-10 08:04:00,68.5,62.8,29.85,North,355,4.5,11.5,82,0.00,BKN,,0.00,132.0,WeatherDisplay:10.37,2013-08-10 06:04:00,
2013-08-10 08:09:00,68.8,63.1,29.85,NW,304,6.8,13.0,82,0.00,SCT,,0.00,139.0,WeatherDisplay:10.37,2013-08-10 06:09:00,
2013-08-10 08:14:00,68.9,62.8,29.85,WNW,290,1.0,9.2,81,0.00,SCT,,0.00,162.0,WeatherDisplay:10.37,2013-08-10 06:14:00,
2013-08-10 08:19:00,69.2,63.1,29.86,WNW,300,6.2,12.7,81,0.00,SCT,,0.00,329.0,WeatherDisplay:10.37,2013-08-10 06:19:00,
2013-08-10 08:24:00,69.6,63.2,29.86,NW,306,4.0,11.5,80,0.00,FEW,,0.00,343.0,WeatherDisplay:10.37,2013-08-10 06:24:00,
2013-08-10 08:29:00,70.2,63.4,29.85,NW,320,4.5,9.2,79,0.00,CLR,,0.00,385.0,WeatherDisplay:10.37,2013-08-10 06:29:00,
2013-08-10 08:34:00,71.0,63.4,29.85,WNW,301,6.3,13.8,77,0.00,CLR,,0.00,383.0,WeatherDisplay:10.37,2013-08-10 06:34:00,
2013-08-10 08:39:00,71.1,63.1,29.85,NW,313,9.4,15.0,76,0.00,CLR,,0.00,299.0,WeatherDisplay:10.37,2013-08-10 06:39:00,
2013-08-10 08:44:00,71.0,63.4,29.86,West,268,2.7,16.1,77,0.00,CLR,,0.00,476.0,WeatherDisplay:10.37,2013-08-10 06:44:00,
2013-08-10 08:49:00,71.3,63.3,29.86,WNW,298,5.3,11.5,76,0.00,CLR,,0.00,526.0,WeatherDisplay:10.37,2013-08-10 06:49:00,
2013-08-10 08:54:00,71.7,63.4,29.86,NNW,341,7.1,12.0,75,0.00,CLR,,0.00,540.0,WeatherDisplay:10.37,2013-08-10 06:54:00,
2013-08-10 08:59:00,72.0,63.3,29.86,NNW,338,6.8,12.7,74,0.00,CLR,,0.00,295.0,WeatherDisplay:10.37,2013-08-10 06:59:00,
2013-08-10 09:04:00,71.8,63.4,29.86,North,355,4.6,16.1,75,0.00,CLR,,0.00,520.0,WeatherDisplay:10.37,2013-08-10 07:04:00,
2013-08-10 09:09:00,71.9,63.2,29.86,NNW,336,7.3,17.3,74,0.00,CLR,,0.00,517.0,WeatherDisplay:10.37,2013-08-10 07:09:00,
2013-08-10 09:14:00,72.0,63.3,29.86,NW,317,7.6,14.0,74,0.00,CLR,,0.00,517.0,WeatherDisplay:10.37,2013-08-10 07:14:00,
2013-08-10 09:19:00,72.0,63.3,29.86,WNW,282,7.0,13.0,74,0.00,CLR,,0.00,334.0,WeatherDisplay:10.37,2013-08-10 07:19:00,
2013-08-10 09:24:00,72.0,63.3,29.86,West,279,5.8,12.7,74,0.00,CLR,,0.00,496.0,WeatherDisplay:10.37,2013-08-10 07:24:00,
2013-08-10 09:29:00,72.0,63.3,29.86,NNW,346,2.4,10.4,74,0.00,CLR,,0.00,359.0,WeatherDisplay:10.37,2013-08-10 07:29:00,
2013-08-10 09:34:00,71.8,63.1,29.86,WNW,294,6.6,14.0,74,0.00,FEW,,0.00,302.0,WeatherDisplay:10.37,2013-08-10 07:34:00,
2013-08-10 09:39:00,71.4,62.7,29.86,NW,315,5.8,11.5,74,0.00,SCT,,0.00,369.0,WeatherDisplay:10.37,2013-08-10 07:39:00,
2013-08-10 09:44:00,71.6,63.3,29.86,NNW,335,3.7,9.0,75,0.00,SCT,,0.00,550.0,WeatherDisplay:10.37,2013-08-10 07:44:00,
2013-08-10 09:49:00,71.9,63.2,29.86,NNW,329,4.2,9.2,74,0.00,SCT,,0.00,411.0,WeatherDisplay:10.37,2013-08-10 07:49:00,
2013-08-10 09:54:00,72.1,63.4,29.86,WNW,295,6.7,11.5,74,0.00,SCT,,0.00,292.0,WeatherDisplay:10.37,2013-08-10 07:54:00,
2013-08-10 09:59:00,71.8,63.1,29.87,NNW,337,4.7,11.5,74,0.00,SCT,,0.00,290.0,WeatherDisplay:10.37,2013-08-10 07:59:00,
2013-08-10 10:04:00,71.8,63.1,29.87,NNW,334,5.2,15.0,74,0.00,SCT,,0.00,207.0,WeatherDisplay:10.37,2013-08-10 08:04:00,
2013-08-10 10:09:00,71.8,63.4,29.87,WNW,290,3.5,10.4,75,0.00,BKN,,0.00,183.0,WeatherDisplay:10.37,2013-08-10 08:09:00,
2013-08-10 10:14:00,71.8,63.1,29.87,NNW,336,3.8,12.7,74,0.00,BKN,,0.00,165.0,WeatherDisplay:10.37,2013-08-10 08:14:00,
2013-08-10 10:19:00,71.7,63.0,29.87,NNW,346,2.9,15.0,74,0.00,BKN,,0.00,179.0,WeatherDisplay:10.37,2013-08-10 08:19:00,
2013-08-10 10:24:00,71.7,63.7,29.87,NNW,338,3.3,9.2,76,0.00,BKN,,0.00,185.0,WeatherDisplay:10.37,2013-08-10 08:24:00,
2013-08-10 10:29:00,71.4,63.8,29.87,NW,320,5.3,9.2,77,0.00,BKN,,0.00,190.0,WeatherDisplay:10.37,2013-08-10 08:29:00,
2013-08-10 10:34:00,71.2,64.4,29.87,WNW,288,0.9,8.1,79,0.00,BKN,,0.00,193.0,WeatherDisplay:10.37,2013-08-10 08:34:00,
2013-08-10 10:39:00,70.9,64.4,29.87,WNW,288,4.5,9.0,80,0.01,RA,,0.01,204.0,WeatherDisplay:10.37,2013-08-10 08:39:00,
2013-08-10 10:44:00,70.5,64.4,29.87,WNW,292,1.0,10.4,81,0.02,RA,,0.02,236.0,WeatherDisplay:10.37,2013-08-10 08:44:00,
2013-08-10 10:49:00,70.4,65.0,29.87,NNW,338,2.8,7.0,83,0.02,RA,,0.02,269.0,WeatherDisplay:10.37,2013-08-10 08:49:00,
2013-08-10 10:54:00,70.4,65.3,29.88,NW,304,1.4,5.8,84,0.02,BKN,,0.02,257.0,WeatherDisplay:10.37,2013-08-10 08:54:00,
2013-08-10 10:59:00,70.5,64.7,29.88,WNW,303,4.7,10.0,82,0.02,BKN,,0.02,237.0,WeatherDisplay:10.37,2013-08-10 08:59:00,
2013-08-10 11:04:00,70.7,64.6,29.88,NNW,328,4.9,11.5,81,0.02,BKN,,0.02,341.0,WeatherDisplay:10.37,2013-08-10 09:04:00,
2013-08-10 11:09:00,70.9,64.4,29.89,NNE,19,4.1,11.5,80,0.02,BKN,,0.02,269.0,WeatherDisplay:10.37,2013-08-10 09:09:00,
2013-08-10 11:14:00,70.9,64.1,29.89,WNW,286,5.1,11.5,79,0.02,BKN,,0.02,283.0,WeatherDisplay:10.37,2013-08-10 09:14:00,
2013-08-10 11:19:00,70.9,64.1,29.89,WNW,303,5.4,11.5,79,0.02,BKN,,0.02,281.0,WeatherDisplay:10.37,2013-08-10 09:19:00,
2013-08-10 11:24:00,70.8,64.0,29.89,NNW,334,4.3,13.8,79,0.02,BKN,,0.02,276.0,WeatherDisplay:10.37,2013-08-10 09:24:00,
2013-08-10 11:29:00,70.8,64.3,29.90,NW,313,4.5,12.7,80,0.02,BKN,,0.02,346.0,WeatherDisplay:10.37,2013-08-10 09:29:00,
2013-08-10 11:34:00,70.9,64.8,29.90,North,349,1.0,4.6,81,0.02,BKN,,0.02,439.0,WeatherDisplay:10.37,2013-08-10 09:34:00,
2013-08-10 11:39:00,71.5,65.7,29.90,WNW,294,2.7,8.1,82,0.01,SCT,,0.02,336.0,WeatherDisplay:10.37,2013-08-10 09:39:00,
2013-08-10 11:44:00,72.0,65.5,29.90,WNW,290,3.1,6.9,80,0.00,SCT,,0.02,297.0,WeatherDisplay:10.37,2013-08-10 09:44:00,
2013-08-10 11:49:00,72.1,64.9,29.90,North,355,5.2,11.5,78,0.00,BKN,,0.02,237.0,WeatherDisplay:10.37,2013-08-10 09:49:00,
2013-08-10 11:54:00,71.8,64.6,29.90,WNW,284,6.4,11.5,78,0.00,BKN,,0.02,199.0,WeatherDisplay:10.37,2013-08-10 09:54:00,
2013-08-10 11:59:00,71.5,64.6,29.90,NW,317,1.9,8.1,79,0.00,BKN,,0.02,174.0,WeatherDisplay:10.37,2013-08-10 09:59:00,
2013-08-10 12:04:00,71.3,64.8,29.90,WNW,283,0.8,5.8,80,0.00,BKN,,0.02,211.0,WeatherDisplay:10.37,2013-08-10 10:04:00,
2013-08-10 12:09:00,71.2,64.7,29.90,North,355,0.4,3.5,80,0.00,BKN,,0.02,239.0,WeatherDisplay:10.37,2013-08-10 10:09:00,
2013-08-10 12:15:00,71.2,64.3,29.91,WNW,303,6.0,10.0,79,0.00,BKN,,0.02,255.0,WeatherDisplay:10.37,2013-08-10 10:15:00,
2013-08-10 12:20:00,71.0,64.6,29.91,NW,312,2.0,10.0,80,0.00,BKN,,0.02,308.0,WeatherDisplay:10.37,2013-08-10 10:20:00,
2013-08-10 12:25:00,70.8,64.0,29.90,WNW,297,2.9,10.4,79,0.00,BKN,,0.02,345.0,WeatherDisplay:10.37,2013-08-10 10:25:00,
2013-08-10 12:30:00,70.8,64.0,29.91,NW,321,4.5,9.2,79,0.00,BKN,,0.02,413.0,WeatherDisplay:10.37,2013-08-10 10:30:00,
2013-08-10 12:35:00,70.9,64.1,29.91,NNW,329,3.9,10.4,79,0.00,SCT,,0.02,422.0,WeatherDisplay:10.37,2013-08-10 10:35:00,
2013-08-10 12:40:00,71.1,64.3,29.91,NNW,337,2.6,10.4,79,0.00,SCT,,0.02,376.0,WeatherDisplay:10.37,2013-08-10 10:40:00,
2013-08-10 12:45:00,71.2,63.6,29.90,NW,310,5.1,12.0,77,0.00,SCT,,0.02,411.0,WeatherDisplay:10.37,2013-08-10 10:45:00,
2013-08-10 12:50:00,71.2,64.0,29.90,East,93,3.0,8.1,78,0.00,SCT,,0.02,647.0,WeatherDisplay:10.37,2013-08-10 10:50:00,
2013-08-10 12:55:00,71.6,63.6,29.90,NNW,344,6.0,11.5,76,0.00,FEW,,0.02,666.0,WeatherDisplay:10.37,2013-08-10 10:55:00,
2013-08-10 13:00:00,71.6,63.6,29.90,West,271,7.1,11.5,76,0.00,FEW,,0.02,541.0,WeatherDisplay:10.37,2013-08-10 11:00:00,
2013-08-10 13:05:00,71.7,64.1,29.90,NNW,334,4.8,11.0,77,0.00,FEW,,0.02,559.0,WeatherDisplay:10.37,2013-08-10 11:05:00,
2013-08-10 13:10:00,71.7,63.4,29.90,NNW,344,7.2,12.7,75,0.00,SCT,,0.02,429.0,WeatherDisplay:10.37,2013-08-10 11:10:00,
2013-08-10 13:15:00,71.2,62.5,29.90,NW,317,7.5,15.0,74,0.00,SCT,,0.02,420.0,WeatherDisplay:10.37,2013-08-10 11:15:00,
2013-08-10 13:20:00,70.8,62.5,29.90,NNW,333,9.1,17.3,75,0.00,SCT,,0.02,450.0,WeatherDisplay:10.37,2013-08-10 11:20:00,
2013-08-10 13:25:00,70.8,62.5,29.90,SW,230,6.8,19.6,75,0.00,SCT,,0.02,448.0,WeatherDisplay:10.37,2013-08-10 11:25:00,
2013-08-10 13:30:00,70.8,62.5,29.90,NW,322,8.6,15.0,75,0.00,SCT,,0.02,446.0,WeatherDisplay:10.37,2013-08-10 11:30:00,
2013-08-10 13:35:00,70.8,62.5,29.90,WNW,289,12.5,22.0,75,0.00,SCT,,0.02,443.0,WeatherDisplay:10.37,2013-08-10 11:35:00,
2013-08-10 13:40:00,70.8,62.5,29.90,NW,313,6.4,12.7,75,0.00,SCT,,0.02,417.0,WeatherDisplay:10.37,2013-08-10 11:40:00,
2013-08-10 13:45:00,71.0,62.7,29.90,NNW,327,5.3,12.0,75,0.00,SCT,,0.02,475.0,WeatherDisplay:10.37,2013-08-10 11:45:00,
2013-08-10 13:50:00,71.1,62.4,29.89,WNW,302,9.6,21.9,74,0.00,SCT,,0.02,399.0,WeatherDisplay:10.37,2013-08-10 11:50:00,
2013-08-10 13:55:00,71.2,62.5,29.89,NW,305,6.8,19.6,74,0.00,SCT,,0.02,610.0,WeatherDisplay:10.37,2013-08-10 11:55:00,
2013-08-10 14:00:00,71.4,62.3,29.89,WNW,291,9.5,20.7,73,0.00,SCT,,0.02,698.0,WeatherDisplay:10.37,2013-08-10 12:00:00,
2013-08-10 14:05:00,71.5,62.4,29.89,NW,309,4.8,13.8,73,0.00,CLR,,0.02,765.0,WeatherDisplay:10.37,2013-08-10 12:05:00,
2013-08-10 14:10:00,72.1,62.6,29.90,North,360,7.5,13.0,72,0.00,CLR,,0.02,835.0,WeatherDisplay:10.37,2013-08-10 12:10:00,
2013-08-10 14:15:00,72.5,62.6,29.89,NNW,328,7.6,17.3,71,0.00,CLR,,0.02,777.0,WeatherDisplay:10.37,2013-08-10 12:15:00,
2013-08-10 14:20:00,72.5,62.2,29.89,NW,314,6.9,20.7,70,0.00,CLR,,0.02,557.0,WeatherDisplay:10.37,2013-08-10 12:20:00,
2013-08-10 14:25:00,72.3,62.0,29.89,WNW,290,10.4,17.3,70,0.00,FEW,,0.02,436.0,WeatherDisplay:10.37,2013-08-10 12:25:00,
2013-08-10 14:30:00,71.9,61.6,29.89,NW,319,7.6,16.1,70,0.00,SCT,,0.02,383.0,WeatherDisplay:10.37,2013-08-10 12:30:00,
2013-08-10 14:35:00,71.7,61.8,29.89,WNW,286,8.8,19.6,71,0.00,SCT,,0.02,383.0,WeatherDisplay:10.37,2013-08-10 12:35:00,
2013-08-10 14:40:00,71.6,61.7,29.89,NW,309,6.9,16.1,71,0.00,SCT,,0.02,520.0,WeatherDisplay:10.37,2013-08-10 12:40:00,
2013-08-10 14:45:00,71.9,62.0,29.89,NE,52,10.0,16.0,71,0.00,SCT,,0.02,561.0,WeatherDisplay:10.37,2013-08-10 12:45:00,
2013-08-10 14:50:00,72.2,61.9,29.89,NE,38,11.6,19.6,70,0.00,FEW,,0.02,643.0,WeatherDisplay:10.37,2013-08-10 12:50:00,
2013-08-10 14:55:00,72.4,61.7,29.89,NW,309,9.6,19.0,69,0.00,CLR,,0.02,722.0,WeatherDisplay:10.37,2013-08-10 12:55:00,
2013-08-10 15:00:00,73.0,62.2,29.89,NNW,336,7.4,12.7,69,0.00,CLR,,0.02,710.0,WeatherDisplay:10.37,2013-08-10 13:00:00,
2013-08-10 15:05:00,73.6,62.0,29.89,North,355,7.4,17.0,67,0.00,CLR,,0.02,663.0,WeatherDisplay:10.37,2013-08-10 13:05:00,
2013-08-10 15:10:00,73.6,61.5,29.89,NNW,327,8.6,18.4,66,0.00,CLR,,0.02,492.0,WeatherDisplay:10.37,2013-08-10 13:10:00,
2013-08-10 15:15:00,73.6,61.5,29.89,NW,319,7.3,19.6,66,0.00,CLR,,0.02,608.0,WeatherDisplay:10.37,2013-08-10 13:15:00,
2013-08-10 15:20:00,74.1,61.6,29.88,NW,312,9.9,17.3,65,0.00,CLR,,0.02,652.0,WeatherDisplay:10.37,2013-08-10 13:20:00,
2013-08-10 15:25:00,74.4,61.9,29.88,NW,313,6.4,20.7,65,0.00,CLR,,0.02,652.0,WeatherDisplay:10.37,2013-08-10 13:25:00,
2013-08-10 15:30:00,74.7,62.1,29.88,WNW,292,7.9,17.0,65,0.00,CLR,,0.02,642.0,WeatherDisplay:10.37,2013-08-10 13:30:00,
2013-08-10 15:35:00,75.0,62.0,29.88,North,360,7.1,16.1,64,0.00,CLR,,0.02,628.0,WeatherDisplay:10.37,2013-08-10 13:35:00,
2013-08-10 15:40:00,75.1,61.6,29.88,NW,325,9.1,18.4,63,0.00,CLR,,0.02,605.0,WeatherDisplay:10.37,2013-08-10 13:40:00,
2013-08-10 15:45:00,75.3,61.8,29.87,WNW,290,9.1,15.0,63,0.00,CLR,,0.02,594.0,WeatherDisplay:10.37,2013-08-10 13:45:00,
2013-08-10 15:50:00,75.4,61.5,29.88,NW,311,8.7,16.1,62,0.00,CLR,,0.02,543.0,WeatherDisplay:10.37,2013-08-10 13:50:00,
2013-08-10 15:55:00,75.4,61.5,29.88,NNW,337,10.4,19.6,62,0.00,CLR,,0.02,568.0,WeatherDisplay:10.37,2013-08-10 13:55:00,
2013-08-10 16:00:00,75.5,61.6,29.88,NNW,337,5.6,16.1,62,0.00,CLR,,0.02,557.0,WeatherDisplay:10.37,2013-08-10 14:00:00,
2013-08-10 16:05:00,75.6,61.2,29.87,WNW,295,10.0,20.7,61,0.00,CLR,,0.02,543.0,WeatherDisplay:10.37,2013-08-10 14:05:00,
2013-08-10 16:10:00,75.6,61.2,29.88,NNW,341,6.8,15.0,61,0.00,CLR,,0.02,538.0,WeatherDisplay:10.37,2013-08-10 14:10:00,
2013-08-10 16:15:00,75.8,61.4,29.88,West,279,4.7,10.4,61,0.00,CLR,,0.02,526.0,WeatherDisplay:10.37,2013-08-10 14:15:00,
2013-08-10 16:20:00,76.2,61.8,29.88,NNE,22,4.1,13.8,61,0.00,CLR,,0.02,506.0,WeatherDisplay:10.37,2013-08-10 14:20:00,
2013-08-10 16:25:00,76.3,60.9,29.88,WNW,288,9.2,14.0,59,0.00,CLR,,0.02,499.0,WeatherDisplay:10.37,2013-08-10 14:25:00,
2013-08-10 16:30:00,76.1,61.2,29.88,WSW,246,8.6,15.0,60,0.00,CLR,,0.02,497.0,WeatherDisplay:10.37,2013-08-10 14:30:00,
2013-08-10 16:35:00,76.1,61.7,29.88,NW,309,5.2,10.0,61,0.00,CLR,,0.02,490.0,WeatherDisplay:10.37,2013-08-10 14:35:00,
2013-08-10 16:40:00,76.4,61.0,29.88,NE,38,8.0,16.1,59,0.00,CLR,,0.02,468.0,WeatherDisplay:10.37,2013-08-10 14:40:00,
2013-08-10 16:45:00,76.5,61.1,29.88,NNW,334,8.0,15.0,59,0.00,CLR,,0.02,462.0,WeatherDisplay:10.37,2013-08-10 14:45:00,
2013-08-10 16:50:00,76.5,60.6,29.88,NW,321,5.2,13.8,58,0.00,CLR,,0.02,434.0,WeatherDisplay:10.37,2013-08-10 14:50:00,
2013-08-10 16:55:00,76.4,61.0,29.87,SW,236,3.3,10.4,59,0.00,CLR,,0.02,399.0,WeatherDisplay:10.37,2013-08-10 14:55:00,
2013-08-10 17:00:00,76.3,60.4,29.88,West,268,7.0,14.0,58,0.00,CLR,,0.02,271.0,WeatherDisplay:10.37,2013-08-10 15:00:00,
2013-08-10 17:06:00,75.9,60.1,29.87,West,269,8.2,15.0,58,0.00,FEW,,0.02,229.0,WeatherDisplay:10.37,2013-08-10 15:06:00,
2013-08-10 17:11:00,75.4,60.1,29.88,North,350,4.7,11.5,59,0.00,SCT,,0.02,251.0,WeatherDisplay:10.37,2013-08-10 15:11:00,
2013-08-10 17:16:00,75.2,60.4,29.88,North,355,6.8,17.3,60,0.00,SCT,,0.02,323.0,WeatherDisplay:10.37,2013-08-10 15:16:00,
2013-08-10 17:21:00,75.2,60.4,29.88,NW,306,7.4,14.0,60,0.00,FEW,,0.02,306.0,WeatherDisplay:10.37,2013-08-10 15:21:00,
2013-08-10 17:26:00,75.0,60.2,29.88,West,263,6.3,11.5,60,0.00,CLR,,0.02,278.0,WeatherDisplay:10.37,2013-08-10 15:26:00,
2013-08-10 17:31:00,74.8,60.0,29.88,NNW,333,7.5,12.0,60,0.00,FEW,,0.02,290.0,WeatherDisplay:10.37,2013-08-10 15:31:00,
2013-08-10 17:36:00,74.8,60.0,29.88,WNW,298,7.2,15.0,60,0.00,CLR,,0.02,322.0,WeatherDisplay:10.37,2013-08-10 15:36:00,
2013-08-10 17:41:00,74.9,60.1,29.88,NW,317,6.4,12.0,60,0.00,CLR,,0.02,318.0,WeatherDisplay:10.37,2013-08-10 15:41:00,
2013-08-10 17:46:00,74.9,60.1,29.88,NNE,30,8.2,12.0,60,0.00,CLR,,0.02,308.0,WeatherDisplay:10.37,2013-08-10 15:46:00,
2013-08-10 17:51:00,74.9,60.1,29.88,North,355,4.6,8.1,60,0.00,CLR,,0.02,290.0,WeatherDisplay:10.37,2013-08-10 15:51:00,
2013-08-10 17:56:00,74.8,60.0,29.88,NNW,340,7.4,20.7,60,0.00,CLR,,0.02,264.0,WeatherDisplay:10.37,2013-08-10 15:56:00,
2013-08-10 18:01:00,74.4,59.6,29.87,NW,311,5.6,16.1,60,0.00,CLR,,0.02,246.0,WeatherDisplay:10.37,2013-08-10 16:01:00,
2013-08-10 18:06:00,74.0,59.2,29.88,NNW,339,7.4,17.3,60,0.00,CLR,,0.02,234.0,WeatherDisplay:10.37,2013-08-10 16:06:00,
2013-08-10 18:11:00,73.7,59.4,29.88,West,269,6.6,15.0,61,0.00,CLR,,0.02,220.0,WeatherDisplay:10.37,2013-08-10 16:11:00,
2013-08-10 18:16:00,73.6,59.3,29.88,West,266,6.1,11.5,61,0.00,CLR,,0.02,207.0,WeatherDisplay:10.37,2013-08-10 16:16:00,
2013-08-10 18:21:00,73.4,59.1,29.88,North,5,8.5,13.0,61,0.00,CLR,,0.02,192.0,WeatherDisplay:10.37,2013-08-10 16:21:00,
2013-08-10 18:26:00,73.1,59.8,29.88,NNW,342,4.8,11.5,63,0.00,CLR,,0.02,178.0,WeatherDisplay:10.37,2013-08-10 16:26:00,
2013-08-10 18:31:00,73.0,59.2,29.88,NNW,327,7.2,12.0,62,0.00,CLR,,0.02,163.0,WeatherDisplay:10.37,2013-08-10 16:31:00,
2013-08-10 18:36:00,72.9,59.1,29.88,North,355,5.9,11.5,62,0.00,CLR,,0.02,146.0,WeatherDisplay:10.37,2013-08-10 16:36:00,
2013-08-10 18:41:00,72.6,59.3,29.88,North,360,3.3,12.7,63,0.00,CLR,,0.02,132.0,WeatherDisplay:10.37,2013-08-10 16:41:00,
2013-08-10 18:46:00,72.5,59.2,29.89,North,355,8.7,16.0,63,0.00,FEW,,0.02,114.0,WeatherDisplay:10.37,2013-08-10 16:46:00,
2013-08-10 18:51:00,72.2,58.9,29.89,NNW,340,4.5,9.2,63,0.00,FEW,,0.02,98.0,WeatherDisplay:10.37,2013-08-10 16:51:00,
2013-08-10 18:56:00,71.9,58.6,29.89,NNW,339,5.6,13.8,63,0.00,SCT,,0.02,72.0,WeatherDisplay:10.37,2013-08-10 16:56:00,
2013-08-10 19:01:00,71.7,58.9,29.89,NW,322,6.6,12.0,64,0.00,SCT,,0.02,51.0,WeatherDisplay:10.37,2013-08-10 17:01:00,
2013-08-10 19:06:00,71.4,58.6,29.89,NNW,331,4.8,9.0,64,0.00,BKN,,0.02,51.0,WeatherDisplay:10.37,2013-08-10 17:06:00,
2013-08-10 19:11:00,71.1,58.3,29.89,NNW,348,3.2,9.2,64,0.00,BKN,,0.02,32.0,WeatherDisplay:10.37,2013-08-10 17:11:00,
2013-08-10 19:16:00,70.8,58.4,29.90,North,355,5.4,10.4,65,0.00,BKN,,0.02,26.0,WeatherDisplay:10.37,2013-08-10 17:16:00,
2013-08-10 19:21:00,70.6,58.3,29.90,NW,310,5.2,9.0,65,0.00,BKN,,0.02,21.0,WeatherDisplay:10.37,2013-08-10 17:21:00,
2013-08-10 19:26:00,70.3,58.0,29.90,West,281,5.1,10.0,65,0.00,BKN,,0.02,18.0,WeatherDisplay:10.37,2013-08-10 17:26:00,
2013-08-10 19:31:00,70.1,58.2,29.90,WNW,294,1.2,9.2,66,0.00,BKN,,0.02,14.0,WeatherDisplay:10.37,2013-08-10 17:31:00,
2013-08-10 19:36:00,69.9,58.0,29.91,West,277,4.7,10.0,66,0.00,BKN,,0.02,11.0,WeatherDisplay:10.37,2013-08-10 17:36:00,
2013-08-10 19:41:00,69.7,58.3,29.91,NNE,23,5.6,9.2,67,0.00,BKN,,0.02,9.0,WeatherDisplay:10.37,2013-08-10 17:41:00,
2013-08-10 19:46:00,69.5,58.1,29.91,West,267,3.1,9.0,67,0.00,BKN,,0.02,7.0,WeatherDisplay:10.37,2013-08-10 17:46:00,
2013-08-10 19:51:00,69.2,57.8,29.91,NNW,344,4.2,8.1,67,0.00,BKN,,0.02,5.0,WeatherDisplay:10.37,2013-08-10 17:51:00,
2013-08-10 19:56:00,69.0,58.0,29.91,WNW,289,3.3,11.5,68,0.00,BKN,,0.02,5.0,WeatherDisplay:10.37,2013-08-10 17:56:00,
2013-08-10 20:01:00,68.8,57.8,29.91,North,360,1.3,6.9,68,0.00,BKN,,0.02,0.0,WeatherDisplay:10.37,2013-08-10 18:01:00,
2013-08-10 20:06:00,68.6,57.6,29.91,WNW,290,6.2,15.0,68,0.00,BKN,,0.02,0.0,WeatherDisplay:10.37,2013-08-10 18:06:00,
2013-08-10 20:11:00,68.5,57.5,29.91,West,275,4.7,13.0,68,0.00,BKN,,0.02,0.0,WeatherDisplay:10.37,2013-08-10 18:11:00,
2013-08-10 20:16:00,68.4,57.8,29.91,West,279,3.2,6.9,69,0.00,BKN,,0.02,0.0,WeatherDisplay:10.37,2013-08-10 18:16:00,
2013-08-10 20:21:00,68.2,57.6,29.91,WNW,292,4.3,12.0,69,0.00,BKN,,0.02,0.0,WeatherDisplay:10.37,2013-08-10 18:21:00,
2013-08-10 20:26:00,68.2,57.6,29.92,NNE,20,4.5,9.0,69,0.00,BKN,,0.02,0.0,WeatherDisplay:10.37,2013-08-10 18:26:00,
2013-08-10 20:31:00,68.1,57.5,29.92,NNW,338,3.6,11.5,69,0.00,BKN,,0.02,0.0,WeatherDisplay:10.37,2013-08-10 18:31:00,
2013-08-10 20:36:00,68.1,57.5,29.91,NW,309,2.1,8.1,69,0.00,BKN,,0.02,0.0,WeatherDisplay:10.37,2013-08-10 18:36:00,
2013-08-10 20:41:00,68.1,57.5,29.92,NW,309,3.7,10.0,69,0.00,BKN,,0.02,0.0,WeatherDisplay:10.37,2013-08-10 18:41:00,
2013-08-10 20:46:00,68.2,57.6,29.92,NW,315,5.0,10.0,69,0.00,BKN,,0.02,0.0,WeatherDisplay:10.37,2013-08-10 18:46:00,
2013-08-10 20:51:00,68.2,57.6,29.91,NNW,329,5.1,9.0,69,0.00,BKN,,0.02,0.0,WeatherDisplay:10.37,2013-08-10 18:51:00,
2013-08-10 20:56:00,68.2,57.6,29.91,NNW,346,4.5,12.7,69,0.00,BKN,,0.02,0.0,WeatherDisplay:10.37,2013-08-10 18:56:00,
2013-08-10 21:01:00,68.2,57.6,29.91,North,355,4.9,11.5,69,0.00,BKN,,0.02,0.0,WeatherDisplay:10.37,2013-08-10 19:01:00,
2013-08-10 21:06:00,68.3,57.7,29.91,NE,52,3.3,8.1,69,0.00,BKN,,0.02,0.0,WeatherDisplay:10.37,2013-08-10 19:06:00,
2013-08-10 21:11:00,68.3,57.7,29.91,NW,318,5.2,9.2,69,0.00,BKN,,0.02,0.0,WeatherDisplay:10.37,2013-08-10 19:11:00,
2013-08-10 21:16:00,68.2,57.6,29.91,NW,320,3.7,10.4,69,0.00,BKN,,0.02,0.0,WeatherDisplay:10.37,2013-08-10 19:16:00,
2013-08-10 21:21:00,68.2,57.6,29.91,North,349,4.3,9.0,69,0.00,BKN,,0.02,0.0,WeatherDisplay:10.37,2013-08-10 19:21:00,
2013-08-10 21:26:00,68.2,57.6,29.91,North,9,5.3,10.0,69,0.00,BKN,,0.02,0.0,WeatherDisplay:10.37,2013-08-10 19:26:00,
2013-08-10 21:31:00,68.2,57.2,29.91,NW,321,5.1,10.0,68,0.00,BKN,,0.02,0.0,WeatherDisplay:10.37,2013-08-10 19:31:00,
2013-08-10 21:36:00,68.1,57.1,29.92,NNE,24,0.7,3.5,68,0.00,BKN,,0.02,0.0,WeatherDisplay:10.37,2013-08-10 19:36:00,
2013-08-10 21:41:00,68.1,57.5,29.92,NNE,18,1.2,4.0,69,0.00,BKN,,0.02,0.0,WeatherDisplay:10.37,2013-08-10 19:41:00,
2013-08-10 21:46:00,68.1,57.1,29.92,NNW,340,4.1,8.0,68,0.00,BKN,,0.02,0.0,WeatherDisplay:10.37,2013-08-10 19:46:00,
2013-08-10 21:51:00,68.0,57.4,29.92,NNW,327,1.9,5.0,69,0.00,BKN,,0.02,0.0,WeatherDisplay:10.37,2013-08-10 19:51:00,
2013-08-10 21:56:00,68.0,57.4,29.92,North,5,3.3,8.0,69,0.00,BKN,,0.02,0.0,WeatherDisplay:10.37,2013-08-10 19:56:00,
2013-08-10 22:01:00,67.9,57.4,29.92,NW,309,2.8,6.0,69,0.00,BKN,,0.02,0.0,WeatherDisplay:10.37,2013-08-10 20:01:00,
2013-08-10 22:06:00,67.9,57.4,29.92,NNW,327,3.3,8.1,69,0.00,BKN,,0.02,0.0,WeatherDisplay:10.37,2013-08-10 20:06:00,
2013-08-10 22:11:00,67.9,57.4,29.92,NNW,337,2.5,5.0,69,0.00,BKN,,0.02,0.0,WeatherDisplay:10.37,2013-08-10 20:11:00,
2013-08-10 22:16:00,67.8,57.3,29.93,NNW,336,2.7,4.0,69,0.00,BKN,,0.02,0.0,WeatherDisplay:10.37,2013-08-10 20:16:00,
2013-08-10 22:21:00,67.8,57.3,29.93,NW,325,1.2,4.6,69,0.00,BKN,,0.02,0.0,WeatherDisplay:10.37,2013-08-10 20:21:00,
2013-08-10 22:26:00,67.8,57.3,29.93,NW,319,0.8,3.5,69,0.00,BKN,,0.02,0.0,WeatherDisplay:10.37,2013-08-10 20:26:00,
2013-08-10 22:31:00,67.8,57.3,29.93,NNW,344,1.4,5.8,69,0.00,BKN,,0.02,0.0,WeatherDisplay:10.37,2013-08-10 20:31:00,
2013-08-10 22:36:00,67.8,57.3,29.93,North,5,0.2,2.3,69,0.00,BKN,,0.02,0.0,WeatherDisplay:10.37,2013-08-10 20:36:00,
2013-08-10 22:41:00,67.7,57.2,29.93,North,5,0.1,1.2,69,0.00,BKN,,0.02,0.0,WeatherDisplay:10.37,2013-08-10 20:41:00,
2013-08-10 22:46:00,67.7,57.2,29.93,North,5,0.3,2.0,69,0.00,BKN,,0.02,0.0,WeatherDisplay:10.37,2013-08-10 20:46:00,
2013-08-10 22:51:00,67.6,57.1,29.94,NW,310,1.2,3.0,69,0.00,BKN,,0.02,0.0,WeatherDisplay:10.37,2013-08-10 20:51:00,
2013-08-10 22:56:00,67.5,57.0,29.93,NW,323,2.3,4.0,69,0.00,BKN,,0.02,0.0,WeatherDisplay:10.37,2013-08-10 20:56:00,
2013-08-10 23:01:00,67.4,57.3,29.93,NNW,340,0.1,3.5,70,0.00,BKN,,0.02,0.0,WeatherDisplay:10.37,2013-08-10 21:01:00,
2013-08-10 23:06:00,67.3,57.2,29.93,NW,317,0.1,5.8,70,0.00,BKN,,0.02,0.0,WeatherDisplay:10.37,2013-08-10 21:06:00,
2013-08-10 23:11:00,67.3,57.2,29.93,NW,315,0.2,2.3,70,0.00,BKN,,0.02,0.0,WeatherDisplay:10.37,2013-08-10 21:11:00,
2013-08-10 23:16:00,67.1,57.0,29.93,West,275,0.0,1.2,70,0.00,BKN,,0.02,0.0,WeatherDisplay:10.37,2013-08-10 21:16:00,
2013-08-10 23:21:00,67.0,56.9,29.94,NNW,328,0.0,3.5,70,0.00,BKN,,0.02,0.0,WeatherDisplay:10.37,2013-08-10 21:21:00,
2013-08-10 23:26:00,67.0,56.9,29.94,NW,326,0.0,0.0,70,0.00,BKN,,0.02,0.0,WeatherDisplay:10.37,2013-08-10 21:26:00,
2013-08-10 23:31:00,66.9,56.8,29.94,NW,326,0.0,3.5,70,0.00,BKN,,0.02,0.0,WeatherDisplay:10.37,2013-08-10 21:31:00,
2013-08-10 23:36:00,66.9,56.8,29.94,NW,326,0.0,0.0,70,0.00,BKN,,0.02,0.0,WeatherDisplay:10.37,2013-08-10 21:36:00,
2013-08-10 23:41:00,66.8,57.1,29.94,NW,326,0.2,1.2,71,0.00,BKN,,0.02,0.0,WeatherDisplay:10.37,2013-08-10 21:41:00,
2013-08-10 23:46:00,66.8,57.1,29.94,NNW,332,0.5,4.6,71,0.00,BKN,,0.02,0.0,WeatherDisplay:10.37,2013-08-10 21:46:00,
2013-08-10 23:51:00,66.8,57.1,29.94,NNW,332,1.2,3.0,71,0.00,BKN,,0.02,0.0,WeatherDisplay:10.37,2013-08-10 21:51:00,
2013-08-10 23:56:00,66.7,57.0,29.94,NNW,338,0.4,2.3,71,0.00,BKN,,0.02,0.0,WeatherDisplay:10.37,2013-08-10 21:56:00,